createdAt,value
2018-06-03T00:01:09.962Z,69.50
2018-06-03T00:03:41.553Z,69.30
2018-06-03T00:06:12.818Z,69.30
2018-06-03T00:08:43.404Z,69.00
2018-06-03T00:11:14.889Z,68.80
2018-06-03T00:13:45.163Z,68.80
2018-06-03T00:16:16.065Z,69.40
2018-06-03T00:18:46.859Z,69.40
2018-06-03T00:21:28.433Z,69.60
2018-06-03T00:23:58.452Z,69.50
2018-06-03T00:26:44.667Z,69.40
2018-06-03T00:29:15.402Z,69.40
2018-06-03T00:31:47.122Z,69.40
2018-06-03T00:34:17.355Z,70.00
2018-06-03T00:36:49.987Z,69.90
2018-06-03T00:39:20.321Z,70.00
2018-06-03T00:41:50.367Z,70.00
2018-06-03T00:44:20.460Z,69.60
2018-06-03T00:46:50.831Z,69.60
2018-06-03T00:49:20.766Z,69.90
2018-06-03T00:51:50.897Z,70.10
2018-06-03T00:54:21.317Z,70.40
2018-06-03T00:57:01.924Z,70.60
2018-06-03T00:59:32.427Z,70.70
2018-06-03T01:02:02.473Z,71.10
2018-06-03T01:04:32.557Z,71.50
2018-06-03T01:08:05.216Z,71.60
2018-06-03T01:10:35.520Z,72.10
2018-06-03T01:13:05.895Z,72.00
2018-06-03T01:15:37.071Z,72.20
2018-06-03T01:18:07.093Z,72.80
2018-06-03T01:20:37.090Z,72.40
2018-06-03T01:23:08.303Z,73.00
2018-06-03T01:25:38.618Z,72.90
2018-06-03T01:28:09.467Z,71.40
2018-06-03T01:30:40.320Z,71.20
2018-06-03T01:33:10.480Z,71.30
2018-06-03T01:35:40.523Z,70.90
2018-06-03T01:38:11.425Z,70.70
2018-06-03T01:40:48.686Z,71.50
2018-06-03T01:43:27.863Z,71.40
2018-06-03T01:45:58.197Z,71.40
2018-06-03T01:48:28.281Z,71.10
2018-06-03T01:50:58.304Z,71.10
2018-06-03T01:53:28.447Z,71.60
2018-06-03T01:55:58.476Z,71.70
2018-06-03T01:58:29.384Z,71.70
2018-06-03T02:00:59.730Z,71.60
2018-06-03T02:03:29.891Z,71.50
2018-06-03T02:06:00.059Z,71.30
2018-06-03T02:08:31.038Z,71.00
2018-06-03T02:11:01.188Z,70.90
2018-06-03T02:13:31.389Z,71.10
2018-06-03T02:18:50.016Z,70.70
2018-06-03T02:21:20.203Z,71.10
2018-06-03T02:23:50.444Z,71.80
2018-06-03T02:26:22.733Z,71.50
2018-06-03T02:28:52.939Z,71.50
2018-06-03T02:31:23.113Z,71.40
2018-06-03T02:33:53.495Z,71.40
2018-06-03T02:36:23.564Z,71.60
2018-06-03T02:38:53.717Z,71.50
2018-06-03T02:41:24.034Z,71.50
2018-06-03T02:43:54.074Z,72.40
2018-06-03T02:46:24.232Z,72.00
2018-06-03T02:48:55.349Z,71.70
2018-06-03T02:51:25.444Z,71.70
2018-06-03T02:53:55.511Z,71.90
2018-06-03T02:56:26.599Z,71.90
2018-06-03T02:58:56.480Z,71.90
2018-06-03T03:01:26.543Z,71.80
2018-06-03T03:03:56.593Z,72.20
2018-06-03T03:06:27.558Z,72.70
2018-06-03T03:09:08.670Z,72.70
2018-06-03T03:12:01.488Z,72.70
2018-06-03T03:14:31.616Z,72.90
2018-06-03T03:17:02.037Z,72.60
2018-06-03T03:19:32.242Z,72.90
2018-06-03T03:22:42.411Z,72.80
2018-06-03T03:25:20.474Z,72.80
2018-06-03T03:27:51.007Z,73.20
2018-06-03T03:30:21.099Z,73.30
2018-06-03T03:32:51.138Z,73.30
2018-06-03T03:35:21.134Z,73.20
2018-06-03T03:37:51.225Z,73.40
2018-06-03T03:40:21.623Z,72.90
2018-06-03T03:42:51.615Z,72.50
2018-06-03T03:45:21.688Z,74.00
2018-06-03T03:47:59.733Z,73.90
2018-06-03T03:50:37.667Z,73.70
2018-06-03T03:53:20.921Z,72.90
2018-06-03T03:55:59.935Z,72.80
2018-06-03T03:58:31.098Z,72.50
2018-06-03T04:01:01.502Z,71.60
2018-06-03T04:03:32.239Z,70.80
2018-06-03T04:06:03.096Z,70.80
2018-06-03T04:08:33.524Z,70.90
2018-06-03T04:11:03.675Z,70.70
2018-06-03T04:13:34.031Z,70.30
2018-06-03T04:16:05.250Z,70.20
2018-06-03T04:18:35.288Z,70.30
2018-06-03T04:21:05.599Z,69.70
2018-06-03T04:23:36.000Z,68.50
2018-06-03T04:26:06.977Z,68.70
2018-06-03T04:28:37.066Z,68.20
2018-06-03T04:31:07.201Z,68.70
2018-06-03T04:33:38.555Z,68.80
2018-06-03T04:36:08.625Z,67.90
2018-06-03T04:38:38.861Z,67.20
2018-06-03T04:41:09.229Z,67.50
2018-06-03T04:43:39.254Z,67.40
2018-06-03T04:46:09.295Z,66.30
2018-06-03T04:48:39.842Z,63.10
2018-06-03T04:51:09.928Z,59.50
2018-06-03T04:53:40.914Z,54.80
2018-06-03T04:56:11.315Z,54.80
2018-06-03T04:58:41.485Z,52.90
2018-06-03T05:01:11.554Z,51.30
2018-06-03T05:03:42.776Z,49.30
2018-06-03T05:06:13.749Z,48.60
2018-06-03T05:08:43.845Z,48.50
2018-06-03T05:11:15.160Z,47.10
2018-06-03T05:13:45.454Z,47.10
2018-06-03T05:16:15.605Z,46.30
2018-06-03T05:18:46.015Z,45.80
2018-06-03T05:21:16.366Z,44.70
2018-06-03T05:23:46.537Z,44.10
2018-06-03T05:26:17.030Z,44.30
2018-06-03T05:28:47.813Z,43.50
2018-06-03T05:31:18.040Z,44.40
2018-06-03T05:33:48.179Z,42.80
2018-06-03T05:36:18.227Z,43.70
2018-06-03T05:38:49.511Z,43.90
2018-06-03T05:41:19.782Z,43.90
2018-06-03T05:43:49.767Z,43.70
2018-06-03T05:46:20.288Z,42.30
2018-06-03T05:48:52.029Z,42.00
2018-06-03T05:51:22.384Z,41.90
2018-06-03T05:53:52.765Z,41.50
2018-06-03T05:56:23.717Z,45.10
2018-06-03T05:58:54.003Z,44.30
2018-06-03T06:01:25.169Z,44.80
2018-06-03T06:03:56.088Z,44.00
2018-06-03T06:06:26.130Z,44.00
2018-06-03T06:08:57.348Z,44.90
2018-06-03T06:11:27.539Z,44.90
2018-06-03T06:14:10.339Z,46.50
2018-06-03T06:16:42.101Z,48.60
2018-06-03T06:19:12.673Z,48.50
2018-06-03T06:21:43.801Z,49.10
2018-06-03T06:24:14.109Z,49.20
2018-06-03T06:26:44.637Z,49.40
2018-06-03T06:29:14.781Z,50.10
2018-06-03T06:31:44.872Z,51.30
2018-06-03T06:34:15.488Z,52.70
2018-06-03T06:36:45.586Z,53.20
2018-06-03T06:39:16.614Z,52.20
2018-06-03T06:41:47.559Z,52.80
2018-06-03T06:44:18.405Z,55.70
2018-06-03T06:46:48.764Z,55.60
2018-06-03T06:49:19.090Z,56.10
2018-06-03T06:51:49.425Z,60.40
2018-06-03T06:54:19.519Z,63.20
2018-06-03T06:56:50.052Z,62.00
2018-06-03T06:59:20.472Z,62.20
2018-06-03T07:01:50.959Z,62.60
2018-06-03T07:04:21.568Z,60.50
2018-06-03T07:06:52.714Z,61.60
2018-06-03T07:09:22.949Z,63.00
2018-06-03T07:11:54.090Z,61.90
2018-06-03T07:14:24.257Z,60.00
2018-06-03T07:16:54.504Z,60.50
2018-06-03T07:19:25.114Z,63.00
2018-06-03T07:21:56.241Z,62.50
2018-06-03T07:24:27.373Z,65.80
2018-06-03T07:26:57.844Z,65.70
2018-06-03T07:29:28.089Z,64.70
2018-06-03T07:31:58.225Z,64.60
2018-06-03T07:34:28.450Z,63.70
2018-06-03T07:36:58.507Z,60.00
2018-06-03T07:39:29.659Z,63.00
2018-06-03T07:42:00.725Z,65.70
2018-06-03T07:44:30.888Z,65.70
2018-06-03T07:47:02.289Z,67.80
2018-06-03T07:49:32.527Z,67.80
2018-06-03T07:52:02.656Z,68.80
2018-06-03T07:54:32.810Z,65.40
2018-06-03T07:57:03.696Z,62.90
2018-06-03T07:59:33.981Z,62.90
2018-06-03T08:02:05.523Z,62.70
2018-06-03T08:04:35.835Z,62.80
2018-06-03T08:07:05.940Z,65.50
2018-06-03T08:09:36.504Z,63.70
2018-06-03T08:12:07.418Z,65.10
2018-06-03T08:14:38.004Z,65.30
2018-06-03T08:17:08.864Z,63.60
2018-06-03T08:19:39.285Z,64.00
2018-06-03T08:22:09.858Z,65.20
2018-06-03T08:24:40.869Z,71.20
2018-06-03T08:27:11.179Z,70.00
2018-06-03T08:29:42.234Z,70.10
2018-06-03T08:32:13.682Z,65.80
2018-06-03T08:34:43.827Z,66.20
2018-06-03T08:37:15.557Z,66.10
2018-06-03T08:39:46.868Z,65.10
2018-06-03T08:42:17.395Z,65.00
2018-06-03T08:44:48.606Z,65.10
2018-06-03T08:47:19.202Z,67.40
2018-06-03T08:49:50.152Z,67.30
2018-06-03T08:52:21.022Z,66.40
2018-06-03T08:54:52.840Z,65.10
2018-06-03T08:57:24.576Z,65.20
2018-06-03T08:59:56.162Z,66.10
2018-06-03T09:02:26.436Z,67.10
2018-06-03T09:04:57.800Z,67.10
2018-06-03T09:07:29.340Z,64.40
2018-06-03T09:10:01.043Z,64.30
2018-06-03T09:12:31.620Z,62.80
2018-06-03T09:15:03.166Z,62.90
2018-06-03T09:17:33.523Z,63.90
2018-06-03T09:20:04.588Z,63.40
2018-06-03T09:22:36.682Z,63.70
2018-06-03T09:25:09.079Z,62.60
2018-06-03T09:27:49.093Z,61.40
2018-06-03T09:30:21.601Z,62.20
2018-06-03T09:32:54.424Z,62.20
2018-06-03T09:35:26.384Z,62.70
2018-06-03T09:37:58.125Z,62.90
2018-06-03T09:40:30.536Z,62.00
2018-06-03T09:43:03.253Z,61.90
2018-06-03T09:45:40.873Z,61.60
2018-06-03T09:48:12.434Z,60.10
2018-06-03T09:50:52.093Z,63.20
2018-06-03T09:53:24.344Z,64.30
2018-06-03T09:55:58.970Z,63.00
2018-06-03T09:58:31.973Z,63.00
2018-06-03T10:01:04.882Z,63.60
2018-06-03T10:03:40.781Z,64.90
2018-06-03T10:06:11.711Z,64.80
2018-06-03T10:08:42.935Z,62.10
2018-06-03T10:11:16.583Z,61.20
2018-06-03T10:13:48.091Z,65.30
2018-06-03T10:16:19.511Z,63.30
2018-06-03T10:18:58.976Z,64.00
2018-06-03T10:21:34.082Z,65.60
2018-06-03T10:24:08.039Z,63.80
2018-06-03T10:26:38.988Z,63.30
2018-06-03T10:29:11.410Z,61.70
2018-06-03T10:31:44.324Z,61.60
2018-06-03T10:34:15.785Z,62.60
2018-06-03T10:36:47.710Z,62.60
2018-06-03T10:39:18.795Z,63.30
2018-06-03T10:41:51.973Z,61.30
2018-06-03T10:44:22.607Z,61.30
2018-06-03T10:46:53.245Z,60.70
2018-06-03T10:49:25.617Z,60.10
2018-06-03T10:51:58.063Z,61.80
2018-06-03T10:54:30.391Z,61.70
2018-06-03T10:57:01.219Z,63.50
2018-06-03T10:59:31.922Z,61.70
2018-06-03T11:02:04.855Z,61.20
2018-06-03T11:04:36.025Z,60.90
2018-06-03T11:07:07.542Z,60.90
2018-06-03T11:09:39.332Z,59.80
2018-06-03T11:12:10.382Z,59.40
2018-06-03T11:14:41.391Z,58.50
2018-06-03T11:17:14.775Z,58.50
2018-06-03T11:21:12.723Z,59.20
2018-06-03T11:23:43.334Z,59.60
2018-06-03T11:26:13.966Z,59.60
2018-06-03T11:28:44.583Z,59.20
2018-06-03T11:31:18.984Z,59.00
2018-06-03T11:33:51.601Z,59.00
2018-06-03T11:36:22.031Z,59.00
2018-06-03T11:39:14.160Z,58.20
2018-06-03T11:41:45.305Z,58.10
2018-06-03T11:44:16.507Z,57.20
2018-06-03T11:46:47.185Z,57.20
2018-06-03T11:49:19.831Z,57.20
2018-06-03T11:51:53.436Z,57.20
2018-06-03T11:54:24.465Z,57.90
2018-06-03T11:58:10.060Z,57.90
2018-06-03T12:00:41.598Z,58.80
2018-06-03T12:03:17.400Z,59.60
2018-06-03T12:05:50.128Z,58.70
2018-06-03T12:08:21.578Z,57.40
2018-06-03T12:10:53.493Z,57.00
2018-06-03T12:13:25.844Z,56.70
2018-06-03T12:15:58.664Z,54.80
2018-06-03T12:18:30.326Z,57.30
2018-06-03T12:21:03.659Z,57.80
2018-06-03T12:23:36.214Z,58.40
2018-06-03T12:26:10.481Z,57.90
2018-06-03T12:28:42.221Z,58.10
2018-06-03T12:31:15.452Z,58.80
2018-06-03T12:33:47.422Z,58.20
2018-06-03T12:36:19.987Z,57.10
2018-06-03T12:38:52.010Z,56.70
2018-06-03T12:41:22.763Z,57.60
2018-06-03T12:43:53.729Z,58.20
2018-06-03T12:46:24.222Z,58.40
2018-06-03T12:48:57.856Z,60.00
2018-06-03T12:51:28.641Z,59.80
2018-06-03T12:53:59.866Z,59.10
2018-06-03T12:56:31.186Z,59.60
2018-06-03T12:59:02.505Z,58.60
2018-06-03T13:01:34.929Z,58.70
2018-06-03T13:04:07.369Z,57.60
2018-06-03T13:06:42.914Z,57.30
2018-06-03T13:09:17.801Z,56.50
2018-06-03T13:11:50.617Z,57.60
2018-06-03T13:14:23.068Z,59.30
2018-06-03T13:16:54.280Z,59.20
2018-06-03T13:19:26.120Z,60.40
2018-06-03T13:21:58.392Z,60.50
2018-06-03T13:24:30.788Z,59.20
2018-06-03T13:27:01.980Z,59.50
2018-06-03T13:29:33.763Z,59.00
2018-06-03T13:32:05.988Z,57.60
2018-06-03T13:34:36.751Z,57.30
2018-06-03T13:37:09.982Z,58.70
2018-06-03T13:39:41.327Z,58.40
2018-06-03T13:42:16.432Z,57.00
2018-06-03T13:44:48.812Z,55.50
2018-06-03T13:47:20.140Z,55.60
2018-06-03T13:49:51.639Z,56.00
2018-06-03T13:52:24.245Z,56.40
2018-06-03T13:54:55.978Z,55.80
2018-06-03T13:57:29.074Z,54.90
2018-06-03T14:00:02.421Z,55.70
2018-06-03T14:02:34.387Z,55.20
2018-06-03T14:05:06.227Z,55.30
2018-06-03T14:07:40.291Z,54.70
2018-06-03T14:10:11.251Z,54.80
2018-06-03T14:12:42.640Z,55.40
2018-06-03T14:15:14.675Z,55.50
2018-06-03T14:17:46.404Z,54.60
2018-06-03T14:20:19.033Z,55.50
2018-06-03T14:22:53.755Z,55.60
2018-06-03T14:25:26.411Z,55.60
2018-06-03T14:28:00.010Z,54.90
2018-06-03T14:30:32.449Z,54.50
2018-06-03T14:33:04.697Z,54.80
2018-06-03T14:35:41.937Z,55.00
2018-06-03T14:38:16.811Z,55.70
2018-06-03T14:40:51.416Z,55.40
2018-06-03T14:43:27.375Z,56.10
2018-06-03T14:46:06.485Z,55.60
2018-06-03T14:48:39.827Z,55.60
2018-06-03T14:51:13.646Z,55.00
2018-06-03T14:53:51.152Z,54.80
2018-06-03T14:56:25.213Z,54.80
2018-06-03T14:59:05.824Z,55.80
2018-06-03T15:01:38.297Z,55.30
2018-06-03T15:04:15.856Z,56.00
2018-06-03T15:06:52.509Z,56.30
2018-06-03T15:09:26.165Z,56.40
2018-06-03T15:11:57.325Z,56.20
2018-06-03T15:14:29.988Z,56.60
2018-06-03T15:17:05.366Z,57.70
2018-06-03T15:19:38.879Z,57.70
2018-06-03T15:22:10.917Z,57.00
2018-06-03T15:24:42.896Z,58.10
2018-06-03T15:27:15.573Z,57.40
2018-06-03T15:29:50.219Z,57.00
2018-06-03T15:32:22.027Z,56.50
2018-06-03T15:34:54.103Z,57.30
2018-06-03T15:37:25.048Z,57.40
2018-06-03T15:39:57.039Z,58.00
2018-06-03T15:42:29.464Z,59.10
2018-06-03T15:45:00.527Z,58.40
2018-06-03T15:47:33.539Z,56.90
2018-06-03T15:50:06.439Z,58.20
2018-06-03T15:52:40.506Z,57.90
2018-06-03T15:55:14.594Z,58.80
2018-06-03T15:57:47.099Z,58.60
2018-06-03T16:00:19.978Z,58.60
2018-06-03T16:02:52.683Z,57.60
2018-06-03T16:05:25.428Z,58.70
2018-06-03T16:07:57.065Z,58.50
2018-06-03T16:10:28.963Z,57.60
2018-06-03T16:13:01.503Z,59.30
2018-06-03T16:15:38.823Z,58.70
2018-06-03T16:18:13.853Z,58.40
2018-06-03T16:20:58.828Z,57.90
2018-06-03T16:23:36.172Z,58.20
2018-06-03T16:26:12.083Z,58.10
2018-06-03T16:28:45.184Z,58.20
2018-06-03T16:31:19.552Z,58.50
2018-06-03T16:33:55.452Z,59.60
2018-06-03T16:36:26.677Z,59.30
2018-06-03T16:39:03.416Z,59.10
2018-06-03T16:41:46.940Z,60.20
2018-06-03T16:44:19.235Z,61.70
2018-06-03T16:46:51.215Z,61.70
2018-06-03T16:49:25.504Z,61.60
2018-06-03T16:52:04.140Z,62.10
2018-06-03T16:54:34.860Z,62.20
2018-06-03T16:57:13.065Z,61.00
2018-06-03T16:59:46.649Z,62.60
2018-06-03T17:02:20.289Z,61.80
2018-06-03T17:04:51.962Z,61.50
2018-06-03T17:07:29.050Z,61.00
2018-06-03T17:10:01.793Z,60.40
2018-06-03T17:12:32.483Z,61.60
2018-06-03T17:15:04.233Z,62.40
2018-06-03T17:17:37.020Z,61.80
2018-06-03T17:20:08.237Z,61.00
2018-06-03T17:22:39.438Z,59.80
2018-06-03T17:25:12.453Z,60.70
2018-06-03T17:27:44.172Z,61.00
2018-06-03T17:30:16.038Z,61.10
2018-06-03T17:32:48.596Z,61.30
2018-06-03T17:35:20.946Z,61.80
2018-06-03T17:37:52.624Z,61.80
2018-06-03T17:40:23.781Z,62.10
2018-06-03T17:42:54.079Z,62.00
2018-06-03T17:46:44.276Z,62.70
2018-06-03T17:49:18.527Z,62.80
2018-06-03T17:51:50.181Z,61.80
2018-06-03T17:54:21.387Z,61.30
2018-06-03T17:57:02.079Z,61.70
2018-06-03T17:59:35.925Z,62.60
2018-06-03T18:02:08.936Z,61.30
2018-06-03T18:04:43.409Z,63.00
2018-06-03T18:07:15.582Z,63.30
2018-06-03T18:09:46.751Z,62.80
2018-06-03T18:12:19.259Z,61.80
2018-06-03T18:14:50.260Z,61.40
2018-06-03T18:17:22.252Z,60.00
2018-06-03T18:19:53.004Z,60.00
2018-06-03T18:22:32.359Z,61.20
2018-06-03T18:25:06.453Z,61.80
2018-06-03T18:27:37.148Z,62.40
2018-06-03T18:30:07.989Z,62.40
2018-06-03T18:32:41.522Z,61.40
2018-06-03T18:35:12.005Z,62.20
2018-06-03T18:37:42.597Z,62.60
2018-06-03T18:40:15.841Z,63.50
2018-06-03T18:42:46.986Z,63.60
2018-06-03T18:45:19.484Z,64.30
2018-06-03T18:47:51.121Z,64.70
2018-06-03T18:50:21.724Z,65.40
2018-06-03T18:52:52.998Z,66.20
2018-06-03T18:55:27.079Z,65.60
2018-06-03T18:58:00.593Z,66.00
2018-06-03T19:00:34.089Z,67.30
2018-06-03T19:03:09.721Z,67.90
2018-06-03T19:05:42.877Z,67.90
2018-06-03T19:08:18.034Z,68.80
2018-06-03T19:10:49.644Z,68.00
2018-06-03T19:13:22.018Z,68.40
2018-06-03T19:15:57.344Z,69.40
2018-06-03T19:18:34.608Z,68.40
2018-06-03T19:21:07.015Z,68.20
2018-06-03T19:23:37.780Z,67.80
2018-06-03T19:26:10.988Z,67.50
2018-06-03T19:28:42.973Z,67.10
2018-06-03T19:31:13.924Z,67.40
2018-06-03T19:33:44.470Z,67.30
2018-06-03T19:36:15.202Z,67.30
2018-06-03T19:38:45.906Z,67.30
2018-06-03T19:41:16.245Z,67.40
2018-06-03T19:43:46.747Z,67.50
2018-06-03T19:46:17.989Z,67.80
2018-06-03T19:48:49.348Z,68.50
2018-06-03T19:51:21.959Z,68.60
2018-06-03T19:53:52.894Z,68.70
2018-06-03T19:56:24.421Z,68.70
2018-06-03T19:58:56.636Z,68.60
2018-06-03T20:01:28.429Z,68.70
2018-06-03T20:03:59.297Z,69.10
2018-06-03T20:06:32.286Z,69.00
2018-06-03T20:11:54.570Z,71.00
2018-06-03T20:14:25.956Z,71.30
2018-06-03T20:16:56.911Z,71.30
2018-06-03T20:19:27.963Z,70.80
2018-06-03T20:22:00.214Z,71.30
2018-06-03T20:24:31.646Z,71.10
2018-06-03T20:27:03.139Z,70.60
2018-06-03T20:29:39.689Z,70.60
2018-06-03T20:32:13.211Z,71.00
2018-06-03T20:34:47.110Z,71.60
2018-06-03T20:37:18.066Z,72.00
2018-06-03T20:39:48.964Z,72.70
2018-06-03T20:42:20.309Z,72.00
2018-06-03T20:44:51.018Z,73.50
2018-06-03T20:47:23.311Z,71.80
2018-06-03T20:49:53.504Z,71.90
2018-06-03T20:52:24.778Z,71.50
2018-06-03T20:54:56.064Z,72.00
2018-06-03T20:57:27.311Z,71.90
2018-06-03T20:59:58.266Z,71.70
2018-06-03T21:02:28.791Z,72.20
2018-06-03T21:05:01.815Z,72.10
2018-06-03T21:07:35.671Z,72.70
2018-06-03T21:10:09.206Z,72.20
2018-06-03T21:12:40.665Z,72.10
2018-06-03T21:15:12.024Z,71.80
2018-06-03T21:17:42.871Z,71.90
2018-06-03T21:20:13.553Z,72.10
2018-06-03T21:22:44.145Z,72.30
2018-06-03T21:25:16.303Z,72.00
2018-06-03T21:27:48.220Z,72.80
2018-06-03T21:30:21.662Z,71.50
2018-06-03T21:32:52.384Z,71.40
2018-06-03T21:35:23.467Z,71.30
2018-06-03T21:37:55.965Z,71.20
2018-06-03T21:40:29.238Z,71.00
2018-06-03T21:43:08.284Z,71.30
2018-06-03T21:45:42.660Z,71.50
2018-06-03T21:48:16.617Z,71.60
2018-06-03T21:50:48.243Z,71.30
2018-06-03T21:53:20.175Z,71.00
2018-06-03T21:55:51.069Z,71.00
2018-06-03T21:58:25.596Z,70.80
2018-06-03T22:01:00.415Z,70.80
2018-06-03T22:03:32.358Z,70.80
2018-06-03T22:06:05.227Z,71.00
2018-06-03T22:08:36.096Z,70.70
2018-06-03T22:11:08.554Z,71.10
2018-06-03T22:13:39.083Z,71.60
2018-06-03T22:16:10.454Z,72.20
2018-06-03T22:18:43.167Z,72.40
2018-06-03T22:21:14.153Z,72.10
2018-06-03T22:23:46.106Z,71.60
2018-06-03T22:26:17.111Z,71.80
2018-06-03T22:28:48.622Z,71.30
2018-06-03T22:31:18.968Z,71.80
2018-06-03T22:33:50.447Z,71.60
2018-06-03T22:36:20.897Z,71.60
2018-06-03T22:38:52.477Z,72.40
2018-06-03T22:41:26.273Z,71.80
2018-06-03T22:43:58.154Z,72.90
2018-06-03T22:46:29.985Z,72.40
2018-06-03T22:49:01.544Z,72.80
2018-06-03T22:51:35.085Z,72.10
2018-06-03T22:54:05.910Z,71.80
2018-06-03T22:56:47.926Z,71.50
2018-06-03T22:59:18.663Z,72.10
2018-06-03T23:01:52.117Z,71.60
2018-06-03T23:04:22.712Z,71.30
2018-06-03T23:06:56.131Z,71.50
2018-06-03T23:09:27.021Z,71.60
2018-06-03T23:11:57.976Z,70.70
2018-06-03T23:14:29.352Z,71.60
2018-06-03T23:17:01.077Z,71.80
2018-06-03T23:19:31.527Z,71.60
2018-06-03T23:22:05.359Z,71.60
2018-06-03T23:24:37.586Z,71.30
2018-06-03T23:27:09.472Z,71.40
2018-06-03T23:29:41.236Z,71.60
2018-06-03T23:32:14.003Z,71.60
2018-06-03T23:34:45.594Z,70.80
2018-06-03T23:37:16.125Z,72.60
2018-06-03T23:39:47.553Z,72.00
2018-06-03T23:42:21.976Z,72.00
2018-06-03T23:44:52.171Z,72.40
2018-06-03T23:47:22.751Z,71.90
2018-06-03T23:49:52.927Z,72.00
2018-06-03T23:52:22.977Z,72.30
2018-06-03T23:54:53.009Z,72.30
2018-06-03T23:57:23.281Z,72.30
2018-06-03T23:59:53.441Z,71.80
